Tiempo atmosférico en la estación meteorológica de Antigua, Las Palmas (252 m.)



Fecha
DESCASC
Temp. máxima en grados centígrados (hora)
DESCASC
Temp. mínima en grados centígrados (hora)
DESCASC
Temp. media en grados centígrados
DESCASC
Racha de viento máxima en m/sg (hora)
DESCASC
Velocidad máxima media en intervalos de 10 minutos(hora)
DESCASC
Precipitaciones diarias en mm
DESCASC
Precipitaciones de 00:00 a 06:00 en mm
DESCASC
Precipitaciones de 06:00 a 12:00 en mm
DESCASC
Precipitaciones de 12:00 a 18:00 en mm
DESCASC
Precipitaciones de 18:00 a 24:00 en mm
DESCASC
19-01-2020 20.8 (13:40) 12.9 (04:40) 16.8 10.28 (22:30) 6.67 (18:00) 0 0 0 0 0
18-01-2020 20.7 (14:00) 11.1 (00:50) 15.9 9.72 (13:30) 6.11 (11:20) 0 0 0 0 0
17-01-2020 19 (14:40) 10.1 (01:00) 14.6 9.44 (11:30) 7.22 (11:50) 0 0 0 0 0
16-01-2020 20 (13:40) 10.2 (00:00) 15.1 6.67 (12:20) 4.17 (15:10) 0 0 0 0 0
15-01-2020 19.6 (16:00) 8.1 (00:00) 13.9 9.17 (14:00) 6.39 (14:00) 0 0 0 0 0
14-01-2020 19.3 (13:50) 9.9 (00:00) 14.6 11.67 (12:50) 8.33 (11:40) 0 0 0 0 0
13-01-2020 20.2 (17:00) 11.9 (00:00) 16.1 10.28 (15:30) 7.22 (14:20) 0 0 0 0 0
12-01-2020 18.4 (12:30) 13.2 (00:00) 15.8 11.94 (14:20) 7.5 (14:30) 0 0 0 0 0
11-01-2020 18 (13:50) 13.8 (00:00) 15.9 11.94 (15:10) 8.33 (15:10) 0 0 0 0 0
10-01-2020 18.2 (11:50) 14 (00:00) 16.1 12.22 (11:10) 8.33 (12:00) 0 0 0 0 0
09-01-2020 18.7 (15:00) 11.3 (00:00) 15 12.78 (11:30) 8.89 (18:10) 0 0 0 0 0
08-01-2020 18.8 (13:50) 10.5 (00:00) 14.6 10 (15:30) 6.11 (14:20) 0 0 0 0 0
07-01-2020 19.4 (13:30) 12.3 (00:00) 15.8 8.89 (15:00) 6.39 (14:40) 0 0 0 0 0
06-01-2020 18.4 (13:40) 12.9 (00:00) 15.6 10.83 (16:00) 7.78 (15:10) 0.4 0 0 0.2 0.2
05-01-2020 18.6 (12:30) 10.3 (00:00) 14.5 8.89 (12:40) 5.56 (12:10) 0 0 0 0 0
04-01-2020 18.1 (13:50) 11.7 (00:00) 14.9 7.78 (14:00) 5.83 (14:00) 0 0 0 0 0
03-01-2020 18.1 (13:10) 11.7 (00:00) 14.9 11.11 (11:30) 7.78 (11:30) 0 0 0 0 0
02-01-2020 17.1 (14:50) 11.7 (00:00) 14.4 12.5 (10:40) 8.61 (11:50) 0 0 0 0 0
01-01-2020 17.1 (11:50) 12.7 (00:00) 14.9 13.06 (09:50) 9.44 (10:50) 0 0 0 0 0
31-12-2019 20.3 (14:00) 11.6 (00:00) 15.9 -- (--) -- (--) 0 0 0 0 0
30-12-2019 -- (--) -- (--) -- -- (--) -- (--) 0 0 0 0 0
29-12-2019 21.9 (14:10) 14.3 (00:00) 18.1 11.11 (10:50) 7.78 (10:40) 0 0 0 0 0
28-12-2019 22.7 (13:10) 15.3 (00:00) 19 8.33 (11:50) 5.83 (11:50) 0 0 0 0 0
27-12-2019 23.1 (14:00) 13.4 (00:00) 18.3 8.89 (12:20) 6.11 (12:10) 0 0 0 0 0
26-12-2019 20.2 (11:20) 16 (00:00) 18.1 9.72 (02:50) 6.39 (03:00) 0 0 0 0 0
25-12-2019 22.8 (12:20) 15.9 (00:00) 19.3 8.06 (11:30) 5.83 (12:10) 0 0 0 0 0
24-12-2019 25.5 (13:00) 14.1 (00:00) 19.8 9.72 (12:00) 6.67 (11:50) 0 0 0 0 0
23-12-2019 24.9 (15:30) 13.2 (00:00) 19 8.61 (00:10) 5 (00:10) 0 0 0 0 0

Gráficas

Temp. máximas Temp. mínimas Temp. medias Precipitaciones Rachas de viento máximas Velocidades máximas media en intervalos de 10 minutos

Datos horarios

Fecha y hora oficial Temperatura (ºC) Velocidad del viento (km/h) Dirección del viento Racha (km/h) Dirección de racha Precipitación (mm) Presión (hPa) Tendencia (hPa) Humedad (%)
2020-01-21 23:00:00 -- -- -- -- -- -- -- -- --
2020-01-21 22:00:00 11.2 7 Norte 12 Noroeste 0 -- -- 78
2020-01-21 21:00:00 12 9 Noroeste 16 Noroeste 0 -- -- 76
2020-01-21 20:00:00 12.6 13 Noroeste 19 Noroeste 0 -- -- 74
2020-01-21 19:00:00 13.1 12 Noroeste 25 Noroeste 0 -- -- 70
2020-01-21 18:00:00 13.9 18 Noroeste 33 Noroeste 0 -- -- 66
2020-01-21 17:00:00 15.1 21 Noroeste 32 Noroeste 0 -- -- 62
2020-01-21 16:00:00 15 23 Noroeste 40 Noroeste 0 -- -- 60
2020-01-21 15:00:00 15.8 23 Noroeste 37 Noroeste 0 -- -- 61
2020-01-21 14:00:00 16.4 29 Noroeste 45 Noroeste 0 -- -- 57
2020-01-21 13:00:00 15.7 26 Noroeste 39 Noroeste 0 -- -- 51
2020-01-21 12:00:00 15.7 32 Noroeste 44 Noroeste 0 -- -- 59
2020-01-21 11:00:00 14.5 29 Noroeste 41 Noroeste 0 -- -- 66
2020-01-21 10:00:00 14.3 20 Noroeste 30 Noroeste 0 -- -- 69
2020-01-21 09:00:00 12.1 16 Norte 24 Oeste 0.4 -- -- 87
2020-01-21 08:00:00 13.4 14 Oeste 21 Noroeste 0 -- -- 66
2020-01-21 07:00:00 13.2 10 Noroeste 25 Noroeste 0 -- -- 63
2020-01-21 06:00:00 13.5 17 Noroeste 27 Noroeste 0 -- -- 61
2020-01-21 05:00:00 13.2 14 Noroeste 31 Noroeste 0 -- -- 57
2020-01-21 04:00:00 13.5 14 Noroeste 22 Noroeste 0 -- -- 62
2020-01-21 03:00:00 13.5 13 Norte 30 Norte 0 -- -- 65
2020-01-21 02:00:00 13.8 20 Norte 33 Norte 0 -- -- 59
2020-01-21 01:00:00 13.5 13 Noroeste 27 Noroeste 0 -- -- 68
2020-01-21 00:00:00 13.6 24 Norte 40 Noroeste 0 -- -- 68
2020-01-20 23:00:00 13.9 24 Noroeste 36 Noroeste 0 -- -- 63
2020-01-20 22:00:00 13.4 22 Norte 41 Norte 0 -- -- 62
2020-01-20 21:00:00 14.1 24 Norte 34 Norte 0 -- -- 67
2020-01-20 20:00:00 14 28 Norte 42 Norte 0 -- -- 70
2020-01-20 19:00:00 14 24 Norte 39 Noroeste 0 -- -- 72
2020-01-20 18:00:00 14.9 23 Norte 48 Norte 0 -- -- 59
2020-01-20 17:00:00 15.2 31 Norte 51 Noroeste 0 -- -- 53
2020-01-20 16:00:00 16.2 31 Norte 50 Norte 0 -- -- 51
2020-01-20 15:00:00 16.3 34 Norte 48 Norte 0 -- -- 52
2020-01-20 14:00:00 17.3 33 Norte 48 Noroeste 0 -- -- 56
2020-01-20 13:00:00 16.4 30 Norte 44 Norte 0 -- -- 63
2020-01-20 12:00:00 15.8 26 Norte 43 Noroeste 0 -- -- 67
2020-01-20 11:00:00 15.5 22 Norte 44 Norte 0 -- -- 69
2020-01-20 10:00:00 14.7 18 Norte 36 Norte 0 -- -- 77
2020-01-20 09:00:00 13.5 13 Norte 27 Norte 0 -- -- 91
2020-01-20 08:00:00 12.5 10 Norte 46 Norte 0 -- -- 93
2020-01-20 07:00:00 14.1 20 Norte 39 Norte 0 -- -- 70
2020-01-20 06:00:00 14.2 23 Norte 45 Norte 0 -- -- 74
2020-01-20 05:00:00 14.3 26 Norte 40 Norte 0 -- -- 72
2020-01-20 04:00:00 14.2 34 Norte 48 Norte 0 -- -- 71
2020-01-20 03:00:00 14.4 21 Norte 37 Norte 0 -- -- 72
2020-01-20 02:00:00 14 18 Norte 33 Norte 0 -- -- 73
2020-01-20 01:00:00 14.7 18 Norte 32 Norte 0 -- -- 74
2020-01-20 00:00:00 14.8 15 Norte 31 Norte 0 -- -- 84
2020-01-19 23:00:00 15.7 14 Norte 37 Norte 0 -- -- 81
2020-01-19 22:00:00 15.3 19 Noroeste 32 Norte 0 -- -- 90
2020-01-19 21:00:00 15.8 17 Norte 26 Noroeste 0 -- -- 85
2020-01-19 20:00:00 16.4 17 Norte 26 Norte 0 -- -- 84
2020-01-19 19:00:00 16.7 9 Nordeste 28 Nordeste 0 -- -- 78
2020-01-19 18:00:00 16.9 24 Nordeste 31 Nordeste 0 -- -- 80
2020-01-19 17:00:00 17.9 20 Nordeste 31 Nordeste 0 -- -- 74
2020-01-19 16:00:00 19.1 18 Nordeste 31 Nordeste 0 -- -- 68
2020-01-19 15:00:00 20.1 16 Nordeste 29 Nordeste 0 -- -- 50
2020-01-19 14:00:00 20.4 18 Nordeste 26 Este 0 -- -- 52
2020-01-19 13:00:00 20 16 Este 24 Este 0 -- -- 51
2020-01-19 12:00:00 19.2 16 Este 24 Este 0 -- -- 48
2020-01-19 11:00:00 18.3 14 Este 20 Este 0 -- -- 66
2020-01-19 10:00:00 16.9 8 Este 23 Este 0 -- -- 77
2020-01-19 09:00:00 15.1 8 Sudoeste 19 Este 0 -- -- 88
2020-01-19 08:00:00 13.7 9 Nordeste 27 Este 0 -- -- 91
2020-01-19 07:00:00 13.8 12 Nordeste 17 Nordeste 0 -- -- 92
2020-01-19 06:00:00 13.5 2 Noroeste 19 Oeste 0 -- -- 90
2020-01-19 05:00:00 13.5 6 Oeste 11 Oeste 0 -- -- 91
2020-01-19 04:00:00 13.7 3 Oeste 8 Oeste 0 -- -- 90
2020-01-19 03:00:00 13.7 2 Noroeste 10 Nordeste 0 -- -- 79
2020-01-19 02:00:00 14.1 3 Norte 11 Nordeste 0 -- -- 60
2020-01-19 01:00:00 14.6 3 Norte 13 Nordeste 0 -- -- 49
2020-01-19 00:00:00 14.7 0 Calma 11 Norte 0 -- -- 55
2020-01-18 23:00:00 14.4 4 Noroeste 9 Norte 0 -- -- 61
2020-01-18 22:00:00 14.1 7 Noroeste 14 Oeste 0 -- -- 63
2020-01-18 21:00:00 14.2 10 Oeste 14 Oeste 0 -- -- 69
2020-01-18 20:00:00 14.5 6 Norte 12 Nordeste 0 -- -- 46
2020-01-18 19:00:00 16.6 4 Nordeste 17 Este 0 -- -- 30
2020-01-18 18:00:00 18.3 9 Este 22 Este 0 -- -- 28
2020-01-18 17:00:00 19.6 14 Este 26 Este 0 -- -- 34
2020-01-18 16:00:00 20.5 18 Este 29 Este 0 -- -- 28
2020-01-18 15:00:00 20.5 19 Este 31 Este 0 -- -- 31
2020-01-18 14:00:00 20.7 21 Este 35 Este 0 -- -- 32
2020-01-18 13:00:00 20.3 21 Este 33 Este 0 -- -- 38
2020-01-18 12:00:00 19.6 19 Este 31 Este 0 -- -- 53
2020-01-18 11:00:00 18.3 19 Este 27 Este 0 -- -- 64
2020-01-18 10:00:00 15.7 9 Sudeste 15 Sudeste 0 -- -- 95
2020-01-18 09:00:00 14.2 8 Sudeste 15 Este 0 -- -- 96
2020-01-18 08:00:00 13.6 6 Sur 16 Sudeste 0 -- -- 95
2020-01-18 07:00:00 13.3 5 Sudeste 12 Este 0 -- -- 95
2020-01-18 06:00:00 12.6 0 Calma 6 Nordeste 0 -- -- 94
2020-01-18 05:00:00 12.2 3 Noroeste 7 Noroeste 0 -- -- 92
2020-01-18 04:00:00 12.2 4 Noroeste 11 Noroeste 0 -- -- 90
2020-01-18 03:00:00 11.9 7 Noroeste 9 Oeste 0 -- -- 86
2020-01-18 02:00:00 11.7 8 Oeste 13 Noroeste 0 -- -- 66
2020-01-18 01:00:00 11.6 10 Noroeste 15 Noroeste 0 -- -- 57
2020-01-18 00:00:00 11.6 9 Noroeste 14 Noroeste 0 -- -- 61
2020-01-17 23:00:00 12.2 10 Noroeste 13 Noroeste 0 -- -- 65
2020-01-17 22:00:00 12.3 9 Noroeste 12 Noroeste 0 -- -- 76
2020-01-17 21:00:00 12.5 8 Noroeste 14 Noroeste 0 -- -- 77
2020-01-17 20:00:00 12.8 9 Noroeste 11 Noroeste 0 -- -- 75
2020-01-17 19:00:00 14.6 3 Noroeste 14 Este 0 -- -- 68
2020-01-17 18:00:00 16.5 9 Este 17 Este 0 -- -- 60
2020-01-17 17:00:00 17.8 10 Este 23 Este 0 -- -- 55
2020-01-17 16:00:00 18.4 15 Este 29 Este 0 -- -- 53
2020-01-17 15:00:00 18.8 19 Este 29 Este 0 -- -- 49
2020-01-17 14:00:00 18.8 21 Este 29 Este 0 -- -- 48
2020-01-17 13:00:00 18.8 19 Este 34 Este 0 -- -- 54
2020-01-17 12:00:00 18 23 Este 34 Este 0 -- -- 57
2020-01-17 11:00:00 17.3 22 Este 31 Este 0 -- -- 62
2020-01-17 10:00:00 16.4 17 Este 28 Este 0 -- -- 67
2020-01-17 09:00:00 14.3 0 Calma 7 Noroeste 0 -- -- 76
2020-01-17 08:00:00 12.4 2 Noroeste 7 Este 0 -- -- 82
2020-01-17 07:00:00 12.8 2 Sur 9 Este 0 -- -- 78
2020-01-17 06:00:00 12.7 3 Este 12 Este 0 -- -- 77
2020-01-17 05:00:00 11.7 2 Este 8 Este 0 -- -- 72
2020-01-17 04:00:00 12.4 2 Oeste 5 Oeste 0 -- -- 65
2020-01-17 03:00:00 11.5 4 Noroeste 11 Noroeste 0 -- -- 69
2020-01-17 02:00:00 11.7 8 Noroeste 10 Noroeste 0 -- -- 66
2020-01-17 01:00:00 10.1 6 Oeste 10 Oeste 0 -- -- 67
2020-01-17 00:00:00 11.9 3 Oeste 6 Noroeste 0 -- -- 66
2020-01-16 23:00:00 11.5 5 Norte 10 Noroeste 0 -- -- 62
2020-01-16 22:00:00 11.7 9 Noroeste 11 Noroeste 0 -- -- 53
2020-01-16 21:00:00 12 4 Noroeste 10 Noroeste 0 -- -- 45
2020-01-16 20:00:00 12.5 3 Oeste 6 Sudoeste 0 -- -- 45
2020-01-16 19:00:00 15.1 4 Sur 14 Este 0 -- -- 46
2020-01-16 18:00:00 17.1 12 Este 19 Este 0 -- -- 29
2020-01-16 17:00:00 18.6 13 Este 22 Este 0 -- -- 32
2020-01-16 16:00:00 19.3 13 Este 22 Este 0 -- -- 31
2020-01-16 15:00:00 19.8 14 Este 22 Sudeste 0 -- -- 37
2020-01-16 14:00:00 19.8 12 Este 22 Este 0 -- -- 35
2020-01-16 13:00:00 19.8 8 Este 24 Sudeste 0 -- -- 30
2020-01-16 12:00:00 19.1 14 Sudeste 23 Sudeste 0 -- -- 34
2020-01-16 11:00:00 18.1 10 Sur 19 Sur 0 -- -- 42
2020-01-16 10:00:00 16.6 10 Sudeste 15 Sudeste 0 -- -- 47
2020-01-16 09:00:00 14.2 3 Sur 10 Sudoeste 0 -- -- 58
2020-01-16 08:00:00 12.2 8 Sudoeste 12 Sudoeste 0 -- -- 61
2020-01-16 07:00:00 11.8 8 Sudoeste 9 Sudoeste 0 -- -- 63
2020-01-16 06:00:00 11.9 8 Sudoeste 9 Sur 0 -- -- 66
2020-01-16 05:00:00 12 7 Sudoeste 11 Sur 0 -- -- 71
2020-01-16 04:00:00 12.3 4 Sudoeste 8 Sudoeste 0 -- -- 73
2020-01-16 03:00:00 12.4 5 Sudoeste 8 Sudoeste 0 -- -- 76
2020-01-16 02:00:00 10.8 3 Oeste 9 Sudoeste 0 -- -- 75
2020-01-16 01:00:00 12.8 5 Sudoeste 8 Sudoeste 0 -- -- 75
2020-01-16 00:00:00 12.9 5 Sudoeste 9 Sudoeste 0 -- -- 71
2020-01-15 23:00:00 13.1 3 Sudoeste 6 Oeste 0 -- -- 67
2020-01-15 22:00:00 13.8 4 Sudoeste 6 Oeste 0 -- -- 63
2020-01-15 21:00:00 13.7 4 Sudoeste 8 Sur 0 -- -- 59
2020-01-15 20:00:00 13.8 3 Sudeste 6 Sudeste 0 -- -- 50
2020-01-15 19:00:00 14.5 0 Calma 13 Este 0 -- -- 41
2020-01-15 18:00:00 17.3 9 Este 20 Este 0 -- -- 33
2020-01-15 17:00:00 18.8 15 Este 22 Este 0 -- -- 27
2020-01-15 16:00:00 19.6 12 Sudeste 24 Sudeste 0 -- -- 29
2020-01-15 15:00:00 19.3 18 Sudeste 31 Sudeste 0 -- -- 28
2020-01-15 14:00:00 18.9 23 Sudeste 33 Sudeste 0 -- -- 33
2020-01-15 13:00:00 18.6 19 Sudeste 28 Sudeste 0 -- -- 34
2020-01-15 12:00:00 18.2 15 Sudeste 28 Sudeste 0 -- -- 42
2020-01-15 11:00:00 17.4 9 Sur 18 Sudeste 0 -- -- 49
2020-01-15 10:00:00 15.7 3 Este 8 Este 0 -- -- 62
2020-01-15 09:00:00 10.5 0 Calma 7 Sudoeste 0 -- -- 69
2020-01-15 08:00:00 8.2 3 Sudoeste 8 Oeste 0 -- -- 72
2020-01-15 07:00:00 8.7 5 Oeste 8 Oeste 0 -- -- 74
2020-01-15 06:00:00 10.4 6 Oeste 9 Noroeste 0 -- -- 82
2020-01-15 05:00:00 10.3 4 Oeste 10 Oeste 0 -- -- 80
2020-01-15 04:00:00 10.1 0 Calma 7 Oeste 0 -- -- 78
2020-01-15 03:00:00 11.6 4 Oeste 6 Sudoeste 0 -- -- 72
2020-01-15 02:00:00 9.9 3 Oeste 10 Oeste 0 -- -- 54
2020-01-15 01:00:00 11.4 7 Oeste 12 Oeste 0 -- -- 64
2020-01-15 00:00:00 11.5 9 Oeste 11 Oeste 0 -- -- 61
2020-01-14 23:00:00 10.8 2 Sudoeste 5 Sudoeste 0 -- -- 44
2020-01-14 22:00:00 11.3 3 Noroeste 8 Noroeste 0 -- -- 40
2020-01-14 21:00:00 13.3 3 Noroeste 5 Nordeste 0 -- -- 39
2020-01-14 20:00:00 13.4 2 Nordeste 12 Sur 0 -- -- 41
2020-01-14 19:00:00 15 8 Sur 16 Sur 0 -- -- 37
2020-01-14 18:00:00 16.8 11 Sur 28 Sur 0 -- -- 35
2020-01-14 17:00:00 18 18 Sur 32 Sur 0 -- -- 34
2020-01-14 16:00:00 18.5 22 Sur 38 Sur 0 -- -- 36
2020-01-14 15:00:00 18.5 26 Sur 42 Sur 0 -- -- 38
2020-01-14 14:00:00 19.1 26 Sur 42 Sur 0 -- -- 39
2020-01-14 13:00:00 18.9 28 Sur 42 Sur 0 -- -- 35
2020-01-14 12:00:00 18.8 26 Sudeste 42 Sur 0 -- -- 34
2020-01-14 11:00:00 17.7 25 Sudeste 41 Sudeste 0 -- -- 38
2020-01-14 10:00:00 16.4 19 Sudeste 30 Sudeste 0 -- -- 46
2020-01-14 09:00:00 14.1 11 Sur 18 Sur 0 -- -- 59
2020-01-14 08:00:00 11.6 9 Sur 10 Sur 0 -- -- 64
2020-01-14 07:00:00 10.4 2 Este 7 Sur 0 -- -- 69
2020-01-14 06:00:00 11.2 0 Calma 13 Sudoeste 0 -- -- 66
2020-01-14 05:00:00 11.3 9 Sudoeste 12 Sudoeste 0 -- -- 72
2020-01-14 04:00:00 10.2 0 Calma 6 Sudoeste 0 -- -- 77
2020-01-14 03:00:00 12.4 2 Oeste 7 Oeste 0 -- -- 71
2020-01-14 02:00:00 12.5 3 Oeste 11 Oeste 0 -- -- 71
2020-01-14 01:00:00 13 4 Oeste 12 Oeste 0 -- -- 78
2020-01-14 00:00:00 12.7 4 Oeste 9 Oeste 0 -- -- 77
2020-01-13 23:00:00 12.4 3 Oeste 8 Oeste 0 -- -- 75
2020-01-13 22:00:00 13.1 2 Sudoeste 10 Oeste 0 -- -- 72
2020-01-13 21:00:00 12.7 2 Noroeste 6 Oeste 0 -- -- 73
2020-01-13 20:00:00 14 4 Noroeste 8 Noroeste 0 -- -- 66
2020-01-13 19:00:00 16.3 3 Este 23 Este 0 -- -- 52
2020-01-13 18:00:00 18.9 10 Sudeste 24 Sudeste 0 -- -- 28
2020-01-13 17:00:00 20.2 14 Sur 27 Sur 0 -- -- 27
2020-01-13 16:00:00 19.6 20 Sur 37 Sudeste 0 -- -- 30
2020-01-13 15:00:00 19.7 21 Sudeste 37 Sudeste 0 -- -- 32
2020-01-13 14:00:00 19.8 25 Sur 36 Sudeste 0 -- -- 33
2020-01-13 13:00:00 18.9 21 Sudeste 34 Sudeste 0 -- -- 39
2020-01-13 12:00:00 18.3 22 Sudeste 36 Sudeste 0 -- -- 41
2020-01-13 11:00:00 17.5 22 Sudeste 35 Sudeste 0 -- -- 44
2020-01-13 10:00:00 16.6 22 Sudeste 33 Sudeste 0 -- -- 48
2020-01-13 09:00:00 14.4 8 Sur 22 Sur 0 -- -- 58
2020-01-13 08:00:00 12.7 6 Sur 11 Sudoeste 0 -- -- 65
2020-01-13 07:00:00 12.1 4 Sur 11 Sudeste 0 -- -- 76
2020-01-13 06:00:00 12.5 5 Sudeste 12 Este 0 -- -- 87
2020-01-13 05:00:00 12.7 5 Noroeste 10 Noroeste 0 -- -- 87
2020-01-13 04:00:00 13.6 2 Sudoeste 14 Este 0 -- -- 85
2020-01-13 03:00:00 14.1 9 Este 23 Este 0 -- -- 84
2020-01-13 02:00:00 13.6 5 Nordeste 18 Este 0 -- -- 85
2020-01-13 01:00:00 12.5 6 Noroeste 13 Norte 0 -- -- 83
2020-01-13 00:00:00 14.2 8 Nordeste 19 Nordeste 0 -- -- 78
2020-01-12 23:00:00 14.2 8 Nordeste 23 Este 0 -- -- 74
2020-01-12 22:00:00 13.5 4 Oeste 12 Norte 0 -- -- 72
2020-01-12 21:00:00 13.2 5 Norte 10 Norte 0 -- -- 69
2020-01-12 20:00:00 14 6 Norte 13 Norte 0 -- -- 69
2020-01-12 19:00:00 14.5 6 Noroeste 17 Este 0 -- -- 61
2020-01-12 18:00:00 15.9 12 Este 29 Nordeste 0 -- -- 54
2020-01-12 17:00:00 17.1 21 Este 35 Este 0 -- -- 50
2020-01-12 16:00:00 17.5 22 Este 38 Este 0 -- -- 42
2020-01-12 15:00:00 17.9 24 Este 43 Este 0 -- -- 50
2020-01-12 14:00:00 18.1 26 Este 38 Este 0 -- -- 51
2020-01-12 13:00:00 18.3 22 Este 37 Este 0 -- -- 51
2020-01-12 12:00:00 18 21 Este 30 Este 0 -- -- 57
2020-01-12 11:00:00 17.5 19 Este 30 Este 0 -- -- 63
2020-01-12 10:00:00 16.5 17 Nordeste 25 Nordeste 0 -- -- 68
2020-01-12 09:00:00 15.1 13 Nordeste 20 Nordeste 0 -- -- 75
2020-01-12 08:00:00 13.9 8 Nordeste 18 Nordeste 0 -- -- 76
2020-01-12 07:00:00 14.6 10 Nordeste 22 Nordeste 0 -- -- 70
2020-01-12 06:00:00 15 12 Nordeste 25 Nordeste 0 -- -- 71
2020-01-12 05:00:00 14.9 14 Nordeste 22 Norte 0 -- -- 72
2020-01-12 04:00:00 14.8 10 Norte 17 Norte 0 -- -- 68
2020-01-12 03:00:00 14.9 10 Norte 20 Nordeste 0 -- -- 71
2020-01-12 02:00:00 14.9 11 Norte 28 Nordeste 0 -- -- 69
2020-01-12 01:00:00 15 14 Norte 22 Nordeste 0 -- -- 71
2020-01-12 00:00:00 15 13 Norte 24 Norte 0 -- -- 67
2020-01-11 23:00:00 15.2 12 Norte 30 Norte 0 -- -- 69
2020-01-11 22:00:00 15.3 15 Norte 30 Norte 0 -- -- 71
2020-01-11 21:00:00 15.5 21 Norte 35 Norte 0 -- -- 72
2020-01-11 20:00:00 15.5 16 Norte 30 Norte 0 -- -- 68
2020-01-11 19:00:00 15.5 20 Norte 31 Noroeste 0 -- -- 76
2020-01-11 18:00:00 15.6 22 Norte 35 Norte 0 -- -- 73
2020-01-11 17:00:00 16.1 23 Norte 36 Norte 0 -- -- 70
2020-01-11 16:00:00 16.3 24 Norte 43 Norte 0 -- -- 72
2020-01-11 15:00:00 17.5 26 Norte 39 Norte 0 -- -- 63
2020-01-11 14:00:00 17.9 25 Norte 38 Norte 0 -- -- 59
2020-01-11 13:00:00 17.1 24 Norte 35 Norte 0 -- -- 64
2020-01-11 12:00:00 17.4 16 Norte 33 Norte 0 -- -- 60
2020-01-11 11:00:00 16.8 18 Nordeste 32 Nordeste 0 -- -- 61
2020-01-11 10:00:00 16.2 19 Norte 32 Norte 0 -- -- 67
2020-01-11 09:00:00 14.7 10 Norte 19 Norte 0 -- -- 71
2020-01-11 08:00:00 14.8 16 Nordeste 29 Nordeste 0 -- -- 73
2020-01-11 07:00:00 14.4 16 Norte 30 Norte 0 -- -- 68
2020-01-11 06:00:00 15 17 Nordeste 25 Nordeste 0 -- -- 69
2020-01-11 05:00:00 14.8 12 Norte 32 Norte 0 -- -- 71
2020-01-11 04:00:00 14.7 15 Norte 31 Norte 0 -- -- 72
2020-01-11 03:00:00 14.5 16 Norte 26 Norte 0 -- -- 78
2020-01-11 02:00:00 14.7 15 Norte 26 Norte 0 -- -- 77
2020-01-11 01:00:00 15.1 17 Norte 23 Norte 0 -- -- 82
2020-01-11 00:00:00 15.4 11 Norte 19 Nordeste 0 -- -- 84
2020-01-10 23:00:00 15.2 6 Norte 17 Noroeste 0 -- -- 86
2020-01-10 22:00:00 15.2 13 Norte 19 Norte 0 -- -- 86
2020-01-10 21:00:00 14.2 9 Noroeste 20 Noroeste 0 -- -- 82
2020-01-10 20:00:00 14.8 13 Norte 18 Norte 0 -- -- 80
2020-01-10 19:00:00 16.7 9 Norte 24 Norte 0 -- -- 73
2020-01-10 18:00:00 17 19 Nordeste 29 Nordeste 0 -- -- 68
2020-01-10 17:00:00 17.6 21 Nordeste 33 Nordeste 0 -- -- 67
2020-01-10 16:00:00 17.6 22 Nordeste 39 Nordeste 0 -- -- 69
2020-01-10 15:00:00 17.9 24 Nordeste 42 Nordeste 0 -- -- 68
2020-01-10 14:00:00 18.1 28 Nordeste 41 Norte 0 -- -- 69
2020-01-10 13:00:00 18 25 Nordeste 43 Nordeste 0 -- -- 70
2020-01-10 12:00:00 17.7 30 Nordeste 44 Nordeste 0 -- -- 70
2020-01-10 11:00:00 18 26 Nordeste 41 Norte 0 -- -- 69
2020-01-10 10:00:00 16.4 22 Norte 35 Nordeste 0 -- -- 81
2020-01-10 09:00:00 16.3 20 Nordeste 37 Nordeste 0 -- -- 80
2020-01-10 08:00:00 15.6 24 Nordeste 36 Norte 0 -- -- 87
2020-01-10 07:00:00 15.6 22 Nordeste 37 Nordeste 0 -- -- 86
2020-01-10 06:00:00 15.3 15 Noroeste 29 Norte 0 -- -- 86
2020-01-10 05:00:00 16.3 18 Norte 30 Norte 0 -- -- 74
2020-01-10 04:00:00 16.1 17 Norte 36 Norte 0 -- -- 73
2020-01-10 03:00:00 16.1 17 Norte 30 Norte 0 -- -- 74
2020-01-10 02:00:00 15.8 16 Norte 28 Nordeste 0 -- -- 75
2020-01-10 01:00:00 15.6 12 Norte 28 Norte 0 -- -- 75
2020-01-10 00:00:00 15 13 Norte 21 Norte 0 -- -- 74
2020-01-09 23:00:00 14.1 10 Noroeste 21 Noroeste 0 -- -- 76
2020-01-09 22:00:00 14.7 12 Norte 26 Norte 0 -- -- 73
2020-01-09 21:00:00 14.8 13 Norte 27 Norte 0 -- -- 73
2020-01-09 20:00:00 15.2 21 Norte 37 Norte 0 -- -- 72
2020-01-09 19:00:00 15.5 24 Norte 42 Norte 0 -- -- 71
2020-01-09 18:00:00 16.5 27 Norte 36 Norte 0 -- -- 69
2020-01-09 17:00:00 17.8 23 Norte 39 Norte 0 -- -- 62
2020-01-09 16:00:00 18.2 30 Norte 43 Norte 0 -- -- 62
2020-01-09 15:00:00 18.7 26 Norte 42 Noroeste 0 -- -- 59
2020-01-09 14:00:00 18.5 26 Norte 37 Norte 0 -- -- 59
2020-01-09 13:00:00 17.8 24 Norte 35 Norte 0 -- -- 62
2020-01-09 12:00:00 18.6 18 Nordeste 46 Noroeste 0 -- -- 57
2020-01-09 11:00:00 16.6 18 Norte 32 Norte 0 -- -- 64
2020-01-09 10:00:00 15.9 14 Norte 24 Norte 0 -- -- 69
2020-01-09 09:00:00 13.6 12 Noroeste 19 Noroeste 0 -- -- 78
2020-01-09 08:00:00 12.2 10 Noroeste 15 Noroeste 0 -- -- 81
2020-01-09 07:00:00 11.9 11 Noroeste 18 Norte 0 -- -- 82
2020-01-09 06:00:00 11.3 13 Norte 19 Norte 0 -- -- 85
2020-01-09 05:00:00 12 12 Norte 20 Norte 0 -- -- 83
2020-01-09 04:00:00 12.7 13 Norte 18 Norte 0 -- -- 81
2020-01-09 03:00:00 13 11 Noroeste 14 Noroeste 0 -- -- 81
2020-01-09 02:00:00 12.4 9 Noroeste 14 Noroeste 0 -- -- 83
2020-01-09 01:00:00 12 10 Noroeste 14 Norte 0 -- -- 83
2020-01-09 00:00:00 12.3 10 Norte 16 Norte 0 -- -- 83
2020-01-08 23:00:00 13 11 Norte 18 Norte 0 -- -- 80
2020-01-08 22:00:00 13.4 13 Norte 19 Norte 0 -- -- 77
2020-01-08 21:00:00 13.6 16 Norte 22 Norte 0 -- -- 80
2020-01-08 20:00:00 13.5 9 Norte 20 Norte 0 -- -- 77
2020-01-08 19:00:00 15.1 14 Nordeste 23 Nordeste 0 -- -- 75
2020-01-08 18:00:00 15.9 15 Nordeste 30 Nordeste 0 -- -- 73
2020-01-08 17:00:00 16.5 20 Nordeste 31 Nordeste 0 -- -- 72
2020-01-08 16:00:00 17.3 22 Nordeste 36 Nordeste 0 -- -- 68
2020-01-08 15:00:00 17.8 19 Nordeste 33 Este 0 -- -- 64
2020-01-08 14:00:00 18.6 20 Nordeste 29 Nordeste 0 -- -- 61
2020-01-08 13:00:00 18.5 18 Nordeste 31 Nordeste 0 -- -- 60
2020-01-08 12:00:00 17.7 18 Nordeste 29 Nordeste 0 -- -- 60
2020-01-08 11:00:00 17.2 21 Nordeste 32 Nordeste 0 -- -- 64
2020-01-08 10:00:00 15.8 14 Nordeste 21 Nordeste 0 -- -- 79
2020-01-08 09:00:00 12 6 Noroeste 12 Noroeste 0 -- -- 92
2020-01-08 08:00:00 10.6 8 Noroeste 12 Noroeste 0 -- -- 91
2020-01-08 07:00:00 10.9 8 Norte 13 Noroeste 0 -- -- 91
2020-01-08 06:00:00 10.8 11 Noroeste 13 Noroeste 0 -- -- 90
2020-01-08 05:00:00 11.4 6 Noroeste 10 Noroeste 0 -- -- 89
2020-01-08 04:00:00 11.7 5 Norte 13 Noroeste 0 -- -- 86
2020-01-08 03:00:00 12.6 5 Noroeste 12 Noroeste 0 -- -- 86
2020-01-08 02:00:00 12.6 9 Noroeste 13 Noroeste 0 -- -- 86
2020-01-08 01:00:00 12.9 5 Noroeste 17 Norte 0 -- -- 84
2020-01-08 00:00:00 13.3 8 Norte 19 Nordeste 0 -- -- 82
2020-01-07 23:00:00 12.8 5 Noroeste 18 Norte 0 -- -- 82
2020-01-07 22:00:00 13.3 14 Norte 21 Norte 0 -- -- 83
2020-01-07 21:00:00 13.5 9 Norte 15 Norte 0 -- -- 83
2020-01-07 20:00:00 14 9 Norte 15 Noroeste 0 -- -- 75
2020-01-07 19:00:00 14.5 3 Noroeste 15 Nordeste 0 -- -- 72
2020-01-07 18:00:00 16.3 9 Nordeste 20 Este 0 -- -- 59
2020-01-07 17:00:00 17.4 15 Este 28 Este 0 -- -- 57
2020-01-07 16:00:00 18.1 18 Este 31 Este 0 -- -- 54
2020-01-07 15:00:00 17.9 21 Este 32 Este 0 -- -- 55
2020-01-07 14:00:00 19.3 21 Este 32 Este 0 -- -- 45
2020-01-07 13:00:00 19.1 19 Nordeste 30 Este 0 -- -- 47
2020-01-07 12:00:00 18.6 15 Nordeste 27 Nordeste 0 -- -- 55
2020-01-07 11:00:00 17.4 18 Nordeste 28 Nordeste 0 -- -- 66
2020-01-07 10:00:00 16.5 13 Nordeste 25 Nordeste 0 -- -- 73
2020-01-07 09:00:00 14 5 Norte 10 Nordeste 0 -- -- 85
2020-01-07 08:00:00 12.3 7 Norte 17 Nordeste 0 -- -- 84
2020-01-07 07:00:00 13.6 12 Nordeste 21 Norte 0 -- -- 81
2020-01-07 06:00:00 13.8 14 Nordeste 27 Nordeste 0 -- -- 78
2020-01-07 05:00:00 13.5 13 Nordeste 24 Nordeste 0 -- -- 79
2020-01-07 04:00:00 13.1 8 Norte 22 Nordeste 0 -- -- 82
2020-01-07 03:00:00 13.2 13 Nordeste 23 Nordeste 0 -- -- 81
2020-01-07 02:00:00 13.5 11 Nordeste 17 Nordeste 0 -- -- 72
2020-01-07 01:00:00 13.9 9 Norte 27 Norte 0 -- -- 76
2020-01-07 00:00:00 13.6 13 Noroeste 18 Noroeste 0 -- -- 77
2020-01-06 23:00:00 13.7 12 Norte 16 Norte 0 -- -- 73
2020-01-06 22:00:00 14.1 11 Norte 16 Norte 0 -- -- 70
2020-01-06 21:00:00 13.8 9 Norte 22 Norte 0 -- -- 80
2020-01-06 20:00:00 14.3 10 Norte 19 Nordeste 0 -- -- 81
2020-01-06 19:00:00 14.7 12 Norte 37 Norte 0.2 -- -- 81
2020-01-06 18:00:00 15.7 22 Norte 34 Norte 0.2 -- -- 78
2020-01-06 17:00:00 16.3 23 Norte 36 Noroeste 0 -- -- 75
2020-01-06 16:00:00 16.6 25 Noroeste 39 Norte 0 -- -- 73
2020-01-06 15:00:00 17.4 25 Norte 35 Noroeste 0 -- -- 65
2020-01-06 14:00:00 18.3 17 Norte 29 Noroeste 0 -- -- 63
2020-01-06 13:00:00 17.5 19 Norte 32 Norte 0 -- -- 61
2020-01-06 12:00:00 17.6 21 Norte 29 Norte 0 -- -- 61
2020-01-06 11:00:00 17.6 16 Norte 33 Norte 0 -- -- 61
2020-01-06 10:00:00 16.4 24 Norte 35 Norte 0 -- -- 74
2020-01-06 09:00:00 14.7 11 Noroeste 21 Noroeste 0 -- -- 79